Time;durP1;ratioP1;P1;durP2;ratioP2;P2;SDS_P1;SDS_P2;PMS_P1;PMS_P2;Temp;Humidity;BMP_temperature;BMP_pressure;BME280_temperature;BME280_humidity;BME280_pressure;Samples;Min_cycle;Max_cycle;Signal;HPM_P1;HPM_P2
2023/12/31 00:00:33;;;;;;;14.88;6.97;;;8.70;99.90;;;;;;5014203;28;20045;-62
2023/12/31 00:03:01;;;;;;;12.23;6.05;;;8.70;99.90;;;;;;4998440;28;20053;-62
2023/12/31 00:05:27;;;;;;;17.10;9.02;;;8.70;99.90;;;;;;5013981;28;20045;-61
2023/12/31 00:07:52;;;;;;;24.77;7.93;;;8.70;99.90;;;;;;5032252;28;20045;-61
2023/12/31 00:10:18;;;;;;;10.30;4.25;;;8.70;99.90;;;;;;5013589;28;20030;-61
2023/12/31 00:12:44;;;;;;;28.25;14.15;;;8.70;99.90;;;;;;5014524;28;20091;-62
2023/12/31 00:15:10;;;;;;;14.80;7.68;;;8.70;99.90;;;;;;5014361;28;20037;-62
2023/12/31 00:17:36;;;;;;;9.77;4.47;;;8.80;99.90;;;;;;5013717;28;20091;-61
2023/12/31 00:20:03;;;;;;;15.48;7.05;;;8.80;99.90;;;;;;5014799;28;20213;-61
2023/12/31 00:22:29;;;;;;;9.85;4.53;;;8.80;99.90;;;;;;5014456;28;20053;-62
2023/12/31 00:24:55;;;;;;;8.68;4.18;;;8.80;99.90;;;;;;5001222;28;20041;-61
2023/12/31 00:27:21;;;;;;;10.32;4.85;;;8.80;99.90;;;;;;5034011;28;20051;-61
2023/12/31 00:29:48;;;;;;;8.02;3.90;;;8.80;99.90;;;;;;5014954;28;20067;-62
2023/12/31 00:32:14;;;;;;;12.82;4.90;;;8.80;99.90;;;;;;5013764;28;20052;-62
2023/12/31 00:34:40;;;;;;;11.52;4.88;;;8.90;99.90;;;;;;5014546;28;20037;-62
2023/12/31 00:37:06;;;;;;;8.55;4.57;;;8.90;99.90;;;;;;5014761;28;20068;-61
2023/12/31 00:39:32;;;;;;;16.67;8.10;;;8.80;99.90;;;;;;5021135;28;20055;-61
2023/12/31 00:41:58;;;;;;;9.52;5.00;;;8.90;99.90;;;;;;5034418;28;20485;-62
2023/12/31 00:44:23;;;;;;;8.13;4.22;;;8.90;99.90;;;;;;5033616;28;20049;-61
2023/12/31 00:46:50;;;;;;;7.93;4.18;;;8.80;99.90;;;;;;5016734;28;20433;-62
2023/12/31 00:49:16;;;;;;;6.55;3.45;;;8.80;99.90;;;;;;5033952;28;20045;-61
2023/12/31 00:51:44;;;;;;;11.38;4.32;;;8.80;99.90;;;;;;5017226;28;20112;-62
2023/12/31 00:54:09;;;;;;;7.97;3.22;;;8.70;99.90;;;;;;5033298;28;20494;-62
2023/12/31 00:56:35;;;;;;;7.63;3.75;;;8.70;99.90;;;;;;5021118;28;20087;-61
2023/12/31 00:59:02;;;;;;;10.80;4.72;;;8.70;99.90;;;;;;5038109;28;20048;-61
2023/12/31 01:01:29;;;;;;;6.75;3.22;;;8.70;99.90;;;;;;5037301;28;20056;-61
2023/12/31 01:03:56;;;;;;;7.78;3.50;;;8.60;99.90;;;;;;5037910;28;20053;-61
2023/12/31 01:06:23;;;;;;;5.80;2.80;;;8.60;99.90;;;;;;5037931;28;20071;-62
2023/12/31 01:08:49;;;;;;;5.82;2.60;;;8.60;99.90;;;;;;5020356;28;20079;-62
2023/12/31 01:11:14;;;;;;;7.72;3.55;;;8.60;99.90;;;;;;5018172;28;20033;-63
2023/12/31 01:13:40;;;;;;;6.32;3.08;;;8.60;99.90;;;;;;5024750;28;20037;-61
2023/12/31 01:16:06;;;;;;;6.47;2.83;;;8.70;99.90;;;;;;5037746;28;20051;-61
2023/12/31 01:18:32;;;;;;;5.63;2.15;;;8.60;99.90;;;;;;5037200;28;20043;-61
2023/12/31 01:20:58;;;;;;;7.40;2.72;;;8.60;99.90;;;;;;5036905;28;20045;-61
2023/12/31 01:23:25;;;;;;;5.00;2.60;;;8.60;99.90;;;;;;5037371;28;20045;-61
2023/12/31 01:25:51;;;;;;;4.70;2.20;;;8.60;99.90;;;;;;5037505;28;20049;-61
2023/12/31 01:28:17;;;;;;;5.72;2.30;;;8.60;99.90;;;;;;5036564;28;20401;-61
2023/12/31 01:30:43;;;;;;;7.13;2.67;;;8.60;99.90;;;;;;5037424;28;20503;-61
2023/12/31 01:33:08;;;;;;;6.13;2.60;;;8.60;99.90;;;;;;5037334;28;20044;-61
2023/12/31 01:35:34;;;;;;;7.35;2.58;;;8.60;99.90;;;;;;5036288;28;20128;-62
2023/12/31 01:38:00;;;;;;;5.75;2.60;;;8.60;99.90;;;;;;5037353;28;20083;-61
2023/12/31 01:40:26;;;;;;;8.43;3.03;;;8.60;99.90;;;;;;5024905;28;20107;-62
2023/12/31 01:42:52;;;;;;;5.10;2.20;;;8.60;99.90;;;;;;5032834;28;20454;-62
2023/12/31 01:45:17;;;;;;;7.10;3.38;;;8.60;99.90;;;;;;5052738;28;20121;-61
2023/12/31 01:47:44;;;;;;;5.72;2.60;;;8.60;99.90;;;;;;5032610;28;20076;-61
2023/12/31 01:50:12;;;;;;;5.75;2.40;;;8.60;99.90;;;;;;5036382;28;20171;-61
2023/12/31 01:52:38;;;;;;;15.18;7.45;;;8.50;99.90;;;;;;5036635;28;20068;-61
2023/12/31 01:55:05;;;;;;;5.70;2.80;;;8.50;99.90;;;;;;5037613;28;20041;-61
2023/12/31 01:57:33;;;;;;;7.38;2.92;;;8.50;99.90;;;;;;5052342;28;20068;-61
2023/12/31 02:00:03;;;;;;;4.75;1.95;;;8.50;99.90;;;;;;5054288;28;20033;-61
2023/12/31 02:02:31;;;;;;;5.30;1.85;;;8.60;99.90;;;;;;5036886;28;20096;-62
2023/12/31 02:04:58;;;;;;;4.13;1.65;;;8.50;99.90;;;;;;5036228;28;20045;-61
2023/12/31 02:07:24;;;;;;;7.82;2.97;;;8.50;99.90;;;;;;5036450;28;20040;-62
2023/12/31 02:09:51;;;;;;;4.80;2.03;;;8.50;99.90;;;;;;5007190;28;20072;-61
2023/12/31 02:12:17;;;;;;;6.85;2.55;;;8.50;99.90;;;;;;5016505;28;20076;-61
2023/12/31 02:14:43;;;;;;;6.60;2.20;;;8.50;99.90;;;;;;5036459;28;20103;-61
2023/12/31 02:17:09;;;;;;;5.43;1.88;;;8.50;99.90;;;;;;5035918;28;20073;-61
2023/12/31 02:19:35;;;;;;;4.30;1.77;;;8.40;99.90;;;;;;5035958;28;20083;-61
2023/12/31 02:22:01;;;;;;;4.53;1.73;;;8.40;99.90;;;;;;5036681;28;20052;-61
2023/12/31 02:24:42;;;;;;;4.18;1.73;;;8.40;99.90;;;;;;5034872;28;20840;-61
2023/12/31 02:27:07;;;;;;;4.13;1.75;;;8.40;99.90;;;;;;5052891;28;20483;-61
2023/12/31 02:29:33;;;;;;;7.90;2.25;;;8.40;99.90;;;;;;5052755;28;20056;-62
2023/12/31 02:32:01;;;;;;;7.78;1.60;;;8.40;99.90;;;;;;5035391;28;20444;-62
2023/12/31 02:34:27;;;;;;;5.03;1.70;;;8.40;99.90;;;;;;5035952;28;20052;-62
2023/12/31 02:36:53;;;;;;;4.10;1.92;;;8.40;99.90;;;;;;5036101;28;20041;-62
2023/12/31 02:39:18;;;;;;;4.30;2.13;;;8.40;99.90;;;;;;5029911;28;20048;-62
2023/12/31 02:41:44;;;;;;;6.78;1.65;;;8.40;99.90;;;;;;5032906;28;20076;-62
2023/12/31 02:44:10;;;;;;;4.60;1.63;;;8.40;99.90;;;;;;5035823;28;20037;-62
2023/12/31 02:46:36;;;;;;;3.47;1.33;;;8.40;99.90;;;;;;5035162;28;20052;-62
2023/12/31 02:49:06;;;;;;;5.85;2.00;;;8.40;99.90;;;;;;5035894;28;20132;-61
2023/12/31 02:51:32;;;;;;;4.03;1.70;;;8.40;99.90;;;;;;5035313;28;20045;-62
2023/12/31 02:53:58;;;;;;;4.00;1.70;;;8.40;99.90;;;;;;5053186;28;20041;-61
2023/12/31 02:56:24;;;;;;;3.85;1.55;;;8.40;99.90;;;;;;5035706;28;20041;-61
2023/12/31 02:58:50;;;;;;;3.95;1.85;;;8.40;99.90;;;;;;5019288;28;20083;-61
2023/12/31 03:01:16;;;;;;;5.22;1.88;;;8.40;99.90;;;;;;5042405;28;20082;-62
2023/12/31 03:03:41;;;;;;;4.20;1.50;;;8.30;99.90;;;;;;5051748;28;20057;-62
2023/12/31 03:06:07;;;;;;;4.25;1.38;;;8.40;99.90;;;;;;5033702;28;20051;-62
2023/12/31 03:08:33;;;;;;;3.65;1.45;;;8.40;99.90;;;;;;5035251;28;20041;-61
2023/12/31 03:10:59;;;;;;;4.07;1.50;;;8.40;99.90;;;;;;5035694;28;20040;-62
2023/12/31 03:13:26;;;;;;;3.60;1.95;;;8.30;99.90;;;;;;5025977;28;20149;-61
2023/12/31 03:15:52;;;;;;;3.92;1.30;;;8.30;99.90;;;;;;5015521;28;20117;-61
2023/12/31 03:18:18;;;;;;;3.95;1.20;;;8.30;99.90;;;;;;4998680;28;20053;-62
2023/12/31 03:20:45;;;;;;;3.25;1.15;;;8.30;99.90;;;;;;4998510;28;20041;-62
2023/12/31 03:23:11;;;;;;;3.38;1.27;;;8.30;99.90;;;;;;5015379;28;20041;-62
2023/12/31 03:25:37;;;;;;;2.85;1.30;;;8.30;99.90;;;;;;5025784;28;20041;-61
2023/12/31 03:28:03;;;;;;;3.88;1.63;;;8.30;99.90;;;;;;5031096;28;20050;-61
2023/12/31 03:30:28;;;;;;;5.03;1.60;;;8.30;99.90;;;;;;5015529;28;20125;-61
2023/12/31 03:32:54;;;;;;;3.08;1.05;;;8.20;99.90;;;;;;5032741;28;20116;-61
2023/12/31 03:35:20;;;;;;;3.72;1.20;;;8.20;99.90;;;;;;5032070;28;20037;-61
2023/12/31 03:37:47;;;;;;;3.47;1.30;;;8.30;99.90;;;;;;5015246;28;20045;-62
2023/12/31 03:40:13;;;;;;;2.42;1.13;;;8.30;99.90;;;;;;5032715;28;20080;-62
2023/12/31 03:42:39;;;;;;;3.78;1.45;;;8.30;99.90;;;;;;5014441;28;20069;-61
2023/12/31 03:45:05;;;;;;;2.97;1.10;;;8.30;99.90;;;;;;5015552;28;20469;-61
2023/12/31 03:47:31;;;;;;;3.70;1.20;;;8.30;99.90;;;;;;5014476;28;20059;-61
2023/12/31 03:49:56;;;;;;;2.38;0.90;;;8.30;99.90;;;;;;5014526;28;20038;-61
2023/12/31 03:52:22;;;;;;;2.30;0.90;;;8.40;99.90;;;;;;5014885;28;20219;-61
2023/12/31 03:54:48;;;;;;;3.08;1.30;;;8.30;99.90;;;;;;5014911;28;20037;-61
2023/12/31 03:57:15;;;;;;;2.88;0.98;;;8.30;99.90;;;;;;5019942;28;20045;-61
2023/12/31 03:59:41;;;;;;;3.05;1.10;;;8.30;99.90;;;;;;5033791;28;20045;-61
2023/12/31 04:02:07;;;;;;;3.20;1.05;;;8.30;99.90;;;;;;5034483;28;20052;-62
2023/12/31 04:04:34;;;;;;;3.22;1.17;;;8.30;99.90;;;;;;5051689;28;20053;-61
2023/12/31 04:07:00;;;;;;;3.95;1.75;;;8.30;99.90;;;;;;5034235;28;20440;-61
2023/12/31 04:09:25;;;;;;;4.00;1.40;;;8.30;99.90;;;;;;5032741;28;20074;-62
2023/12/31 04:11:51;;;;;;;3.15;1.10;;;8.30;99.90;;;;;;5031237;28;20052;-61
2023/12/31 04:14:17;;;;;;;4.28;1.52;;;8.30;99.90;;;;;;5014506;28;20066;-61
2023/12/31 04:16:42;;;;;;;2.95;1.33;;;8.40;99.90;;;;;;5013543;28;20041;-62
2023/12/31 04:19:09;;;;;;;5.47;1.63;;;8.40;99.90;;;;;;5015766;28;20037;-62
2023/12/31 04:21:36;;;;;;;5.45;1.55;;;8.40;99.90;;;;;;5014472;28;20049;-61
2023/12/31 04:24:03;;;;;;;4.18;1.58;;;8.40;99.90;;;;;;4997485;28;20589;-61
2023/12/31 04:26:29;;;;;;;3.65;1.30;;;8.40;99.90;;;;;;5024129;28;20045;-61
2023/12/31 04:28:54;;;;;;;5.47;1.75;;;8.40;99.90;;;;;;5034373;28;20049;-62
2023/12/31 04:31:20;;;;;;;4.15;1.50;;;8.40;99.90;;;;;;5049932;28;20104;-62
2023/12/31 04:33:46;;;;;;;5.13;1.80;;;8.40;99.90;;;;;;5050907;28;20033;-62
2023/12/31 04:36:11;;;;;;;4.57;1.83;;;8.40;99.90;;;;;;5052430;28;20505;-62
2023/12/31 04:38:37;;;;;;;4.22;1.73;;;8.40;99.90;;;;;;5033200;28;20387;-62
2023/12/31 04:41:04;;;;;;;4.38;1.85;;;8.40;99.90;;;;;;5034244;28;20387;-62
2023/12/31 04:43:30;;;;;;;4.30;1.80;;;8.40;99.90;;;;;;5033698;28;20049;-62
2023/12/31 04:45:56;;;;;;;4.80;1.90;;;8.40;99.90;;;;;;5033136;28;20106;-62
2023/12/31 04:48:21;;;;;;;5.05;2.30;;;8.40;99.90;;;;;;5024341;28;20069;-62
2023/12/31 04:50:47;;;;;;;4.65;1.80;;;8.40;99.90;;;;;;5014346;28;20069;-62
2023/12/31 04:53:15;;;;;;;4.75;1.85;;;8.40;99.90;;;;;;5030145;28;20045;-62
2023/12/31 04:55:41;;;;;;;3.97;1.60;;;8.40;99.90;;;;;;5030856;28;20077;-62
2023/12/31 04:58:06;;;;;;;5.97;2.30;;;8.40;99.90;;;;;;5014562;28;20080;-62
2023/12/31 05:00:32;;;;;;;7.40;2.63;;;8.40;99.90;;;;;;5013285;28;20494;-62
2023/12/31 05:02:58;;;;;;;7.07;2.72;;;8.40;99.90;;;;;;4998086;28;20522;-62
2023/12/31 05:05:26;;;;;;;5.68;2.85;;;8.40;99.90;;;;;;4997846;28;20054;-62
2023/12/31 05:07:52;;;;;;;4.80;2.17;;;8.40;99.90;;;;;;5013226;28;20054;-62
2023/12/31 05:10:17;;;;;;;5.95;2.80;;;8.40;99.90;;;;;;5014015;28;20124;-62
2023/12/31 05:12:43;;;;;;;6.05;2.70;;;8.40;99.90;;;;;;5013268;28;20479;-62
2023/12/31 05:15:09;;;;;;;7.55;3.08;;;8.40;99.90;;;;;;5019481;28;20540;-62
2023/12/31 05:17:35;;;;;;;5.28;2.63;;;8.40;99.90;;;;;;5030936;28;20502;-62
2023/12/31 05:20:00;;;;;;;5.60;2.15;;;8.40;99.90;;;;;;5013761;28;20056;-62
2023/12/31 05:22:26;;;;;;;4.53;1.88;;;8.40;99.90;;;;;;5014198;28;20503;-62
2023/12/31 05:24:52;;;;;;;5.90;2.78;;;8.40;99.90;;;;;;5013932;28;20041;-62
2023/12/31 05:27:19;;;;;;;5.88;1.85;;;8.40;99.90;;;;;;5028955;28;20051;-62
2023/12/31 05:29:45;;;;;;;4.85;2.50;;;8.40;99.90;;;;;;5033461;28;20084;-62
2023/12/31 05:32:10;;;;;;;5.30;2.30;;;8.40;99.90;;;;;;5051398;28;20083;-62
2023/12/31 05:34:36;;;;;;;5.03;1.90;;;8.40;99.90;;;;;;5049194;28;20037;-62
2023/12/31 05:37:02;;;;;;;5.85;2.33;;;8.40;99.90;;;;;;5051679;28;20060;-62
2023/12/31 05:39:28;;;;;;;5.28;2.20;;;8.40;99.90;;;;;;5033494;28;20040;-62
2023/12/31 05:41:53;;;;;;;5.15;2.08;;;8.40;99.90;;;;;;5034725;28;20071;-62
2023/12/31 05:44:19;;;;;;;5.88;1.90;;;8.40;99.90;;;;;;5053893;28;20546;-62
2023/12/31 05:46:45;;;;;;;4.88;2.00;;;8.40;99.90;;;;;;5054193;28;20125;-62
2023/12/31 05:49:11;;;;;;;4.88;2.08;;;8.50;99.90;;;;;;5034162;28;20453;-62
2023/12/31 05:51:37;;;;;;;6.07;2.20;;;8.50;99.90;;;;;;5037174;28;20041;-62
2023/12/31 05:54:03;;;;;;;3.65;1.63;;;8.50;99.90;;;;;;5037208;28;20045;-62
2023/12/31 05:56:29;;;;;;;4.13;1.60;;;8.50;99.90;;;;;;5015413;28;20091;-62
2023/12/31 05:58:55;;;;;;;4.68;1.75;;;8.50;99.90;;;;;;5017370;28;20045;-62
2023/12/31 06:01:21;;;;;;;5.85;2.13;;;8.50;99.90;;;;;;5034756;28;20545;-62
2023/12/31 06:03:47;;;;;;;4.28;1.80;;;8.50;99.90;;;;;;5002377;28;20438;-62
2023/12/31 06:06:13;;;;;;;5.97;2.10;;;8.50;99.90;;;;;;4997631;28;20038;-62
2023/12/31 06:08:38;;;;;;;4.57;2.03;;;8.50;99.90;;;;;;4997435;28;20497;-62
2023/12/31 06:11:05;;;;;;;5.03;2.22;;;8.50;99.90;;;;;;4996782;28;20081;-62
2023/12/31 06:13:31;;;;;;;4.22;2.00;;;8.50;99.90;;;;;;4996967;28;20121;-62
2023/12/31 06:15:57;;;;;;;5.25;2.13;;;8.50;99.90;;;;;;4996478;28;20049;-62
2023/12/31 06:18:22;;;;;;;5.38;2.10;;;8.50;99.90;;;;;;4997285;28;20050;-62
2023/12/31 06:20:48;;;;;;;6.50;2.13;;;8.50;99.90;;;;;;4997402;28;20045;-62
2023/12/31 06:23:13;;;;;;;4.65;1.90;;;8.50;99.90;;;;;;4996160;28;20060;-62
2023/12/31 06:25:39;;;;;;;4.75;1.92;;;8.60;99.90;;;;;;4997206;28;20042;-62
2023/12/31 06:28:05;;;;;;;7.50;2.20;;;8.60;99.90;;;;;;4996804;28;20049;-62
2023/12/31 06:30:31;;;;;;;5.78;2.15;;;8.60;99.90;;;;;;5021600;28;20444;-62
2023/12/31 06:32:57;;;;;;;4.72;2.17;;;8.60;99.90;;;;;;5016695;28;20121;-62
2023/12/31 06:35:23;;;;;;;7.00;2.15;;;8.70;99.90;;;;;;5016619;28;20502;-62
2023/12/31 06:37:49;;;;;;;4.57;2.17;;;8.60;99.90;;;;;;5008349;28;20044;-62
2023/12/31 06:40:14;;;;;;;5.15;2.25;;;8.60;99.90;;;;;;5016022;28;20050;-62
2023/12/31 06:42:40;;;;;;;6.78;1.90;;;8.60;99.90;;;;;;4999666;28;20045;-62
2023/12/31 06:45:06;;;;;;;4.95;2.80;;;8.60;99.90;;;;;;4999321;28;20183;-62
2023/12/31 06:47:32;;;;;;;5.05;2.65;;;8.60;99.90;;;;;;5015241;28;20053;-62
2023/12/31 06:49:59;;;;;;;5.35;2.80;;;8.60;99.90;;;;;;5034014;28;20041;-63
2023/12/31 06:52:24;;;;;;;4.72;2.17;;;8.70;99.90;;;;;;5014407;28;20490;-62
2023/12/31 06:54:50;;;;;;;6.45;2.35;;;8.60;99.90;;;;;;4999378;28;20056;-62
2023/12/31 06:57:15;;;;;;;5.55;2.70;;;8.70;99.90;;;;;;5011009;28;20045;-61
2023/12/31 06:59:41;;;;;;;5.28;2.33;;;8.70;99.90;;;;;;4979228;28;20048;-61
2023/12/31 07:02:07;;;;;;;5.82;2.00;;;8.70;99.90;;;;;;4996510;28;20045;-62
2023/12/31 07:04:33;;;;;;;4.38;2.42;;;8.70;99.90;;;;;;5015723;28;20392;-60
2023/12/31 07:06:58;;;;;;;4.07;1.75;;;8.70;99.90;;;;;;5015291;28;20129;-61
2023/12/31 07:09:24;;;;;;;5.78;1.92;;;8.70;99.90;;;;;;5015965;28;20038;-61
2023/12/31 07:11:50;;;;;;;3.90;1.75;;;8.70;99.90;;;;;;5015418;28;20033;-61
2023/12/31 07:14:15;;;;;;;4.88;2.17;;;8.70;99.90;;;;;;5014767;28;20041;-61
2023/12/31 07:16:41;;;;;;;5.88;1.85;;;8.70;99.90;;;;;;5015553;28;20124;-61
2023/12/31 07:19:07;;;;;;;4.95;1.90;;;8.70;99.90;;;;;;5015850;28;20395;-61
2023/12/31 07:21:32;;;;;;;10.05;2.35;;;8.80;99.90;;;;;;5021431;28;20049;-61
2023/12/31 07:23:59;;;;;;;4.85;1.80;;;8.70;99.90;;;;;;5053310;28;20502;-61
2023/12/31 07:26:26;;;;;;;4.47;2.17;;;8.80;99.90;;;;;;5022798;28;20053;-61
2023/12/31 07:28:53;;;;;;;4.57;1.63;;;8.80;99.90;;;;;;5015246;28;20045;-61
2023/12/31 07:31:19;;;;;;;4.28;1.63;;;8.80;99.90;;;;;;5015681;28;20033;-61
2023/12/31 07:33:44;;;;;;;4.72;1.95;;;8.80;99.90;;;;;;5030867;28;20045;-61
2023/12/31 07:36:10;;;;;;;5.15;2.60;;;8.80;99.90;;;;;;5031804;28;20044;-61
2023/12/31 07:38:36;;;;;;;5.80;2.17;;;8.80;99.90;;;;;;5015260;28;20038;-61
2023/12/31 07:41:01;;;;;;;4.75;1.90;;;8.80;99.90;;;;;;5014432;28;20505;-61
2023/12/31 07:43:27;;;;;;;4.75;2.35;;;8.80;99.90;;;;;;5032934;28;20052;-61
2023/12/31 07:45:53;;;;;;;4.97;1.77;;;8.80;99.90;;;;;;5022485;28;20508;-61
2023/12/31 07:48:19;;;;;;;5.40;2.45;;;8.80;99.90;;;;;;5050436;28;20126;-61
2023/12/31 07:50:45;;;;;;;4.00;2.03;;;8.80;99.90;;;;;;5017447;28;20040;-61
2023/12/31 07:53:10;;;;;;;6.13;2.72;;;8.80;99.90;;;;;;4998466;28;20088;-61
2023/12/31 07:55:36;;;;;;;5.05;2.30;;;8.80;99.90;;;;;;5014290;28;20103;-61
2023/12/31 07:58:02;;;;;;;4.93;2.03;;;8.80;99.90;;;;;;5031889;28;20509;-61
2023/12/31 08:00:27;;;;;;;6.78;2.28;;;8.80;99.90;;;;;;5016177;28;20464;-61
2023/12/31 08:02:53;;;;;;;4.13;1.80;;;8.80;99.90;;;;;;5030262;28;20057;-61
2023/12/31 08:05:18;;;;;;;5.63;2.10;;;8.80;99.90;;;;;;5014562;28;20421;-61
2023/12/31 08:07:44;;;;;;;4.70;2.00;;;8.80;99.90;;;;;;5033716;28;20045;-61
2023/12/31 08:10:11;;;;;;;5.55;2.05;;;8.80;99.90;;;;;;5047446;28;20037;-61
2023/12/31 08:12:37;;;;;;;5.43;1.90;;;8.80;99.90;;;;;;5024046;28;20387;-61
2023/12/31 08:15:03;;;;;;;5.50;2.33;;;8.80;99.90;;;;;;5034672;28;20503;-61
2023/12/31 08:17:29;;;;;;;5.22;1.88;;;8.80;99.90;;;;;;5037473;28;20044;-61
2023/12/31 08:19:55;;;;;;;5.53;2.10;;;8.90;99.90;;;;;;5018146;28;20114;-61
2023/12/31 08:22:20;;;;;;;4.45;2.08;;;8.90;99.90;;;;;;5034213;28;20402;-60
2023/12/31 08:24:46;;;;;;;6.25;1.70;;;8.90;99.90;;;;;;5028552;28;20503;-60
2023/12/31 08:27:12;;;;;;;5.43;2.35;;;8.90;99.90;;;;;;5033837;28;20037;-61
2023/12/31 08:29:40;;;;;;;6.00;2.10;;;8.90;99.90;;;;;;5016954;28;20039;-61
2023/12/31 08:32:05;;;;;;;10.25;2.45;;;8.90;99.90;;;;;;5034734;28;20040;-61
2023/12/31 08:34:31;;;;;;;4.43;2.10;;;8.90;99.90;;;;;;5034083;28;20048;-61
2023/12/31 08:36:57;;;;;;;5.18;2.63;;;8.90;99.90;;;;;;5033576;28;20176;-61
2023/12/31 08:39:22;;;;;;;4.25;2.05;;;8.80;99.90;;;;;;5022017;28;20111;-61
2023/12/31 08:41:48;;;;;;;4.35;2.00;;;8.90;99.90;;;;;;5003894;28;20415;-60
2023/12/31 08:44:14;;;;;;;5.22;1.98;;;8.90;99.90;;;;;;5018030;28;20079;-60
2023/12/31 08:46:39;;;;;;;4.80;1.95;;;8.90;99.90;;;;;;5014605;28;20045;-60
2023/12/31 08:49:06;;;;;;;5.05;2.03;;;8.80;99.90;;;;;;5027141;28;20054;-60
2023/12/31 08:51:32;;;;;;;3.85;1.92;;;8.80;99.90;;;;;;5018504;28;20164;-60
2023/12/31 08:53:58;;;;;;;4.43;2.22;;;8.90;99.90;;;;;;5027181;28;20509;-59
2023/12/31 08:56:24;;;;;;;5.13;2.28;;;8.90;99.90;;;;;;5038953;28;20041;-60
2023/12/31 08:58:49;;;;;;;5.43;2.80;;;8.90;99.90;;;;;;5023498;28;20040;-60
2023/12/31 09:01:16;;;;;;;4.93;2.20;;;9.00;99.90;;;;;;5043498;28;20048;-60
2023/12/31 09:03:42;;;;;;;4.10;1.85;;;9.00;99.90;;;;;;5029876;28;20391;-59
2023/12/31 09:06:10;;;;;;;4.63;1.98;;;9.00;99.90;;;;;;5017418;28;20088;-60
2023/12/31 09:08:36;;;;;;;4.93;2.00;;;9.00;99.90;;;;;;5024198;28;20078;-60
2023/12/31 09:11:02;;;;;;;4.10;1.70;;;9.00;99.90;;;;;;5014141;28;20788;-59
2023/12/31 09:13:27;;;;;;;4.07;1.85;;;9.10;99.90;;;;;;5025076;28;20124;-60
2023/12/31 09:15:55;;;;;;;4.80;1.58;;;9.10;99.90;;;;;;5011736;28;20037;-60
2023/12/31 09:18:21;;;;;;;4.43;2.03;;;9.10;99.90;;;;;;5014309;28;20045;-60
2023/12/31 09:20:47;;;;;;;6.00;2.10;;;9.10;99.90;;;;;;5024207;28;20063;-60
2023/12/31 09:23:13;;;;;;;5.18;2.25;;;9.10;99.90;;;;;;5035151;28;20060;-60
2023/12/31 09:25:39;;;;;;;4.40;1.92;;;9.10;99.90;;;;;;5048487;28;20045;-60
2023/12/31 09:28:05;;;;;;;4.22;1.90;;;9.10;99.90;;;;;;5019320;28;20033;-60
2023/12/31 09:30:30;;;;;;;4.47;2.38;;;9.10;99.90;;;;;;5027548;28;20528;-60
2023/12/31 09:32:57;;;;;;;3.75;1.38;;;9.10;99.90;;;;;;5004121;28;20037;-60
2023/12/31 09:35:22;;;;;;;4.57;2.03;;;9.10;99.90;;;;;;5017476;28;20037;-60
2023/12/31 09:37:48;;;;;;;6.55;2.33;;;9.10;99.90;;;;;;5047874;28;20056;-60
2023/12/31 09:40:15;;;;;;;5.03;1.80;;;9.10;99.90;;;;;;5020660;28;20569;-60
2023/12/31 09:42:49;;;;;;;4.78;2.15;;;9.00;99.90;;;;;;5031891;28;20423;-60
2023/12/31 09:45:19;;;;;;;4.40;2.08;;;9.00;99.90;;;;;;5017534;28;20493;-60
2023/12/31 09:47:46;;;;;;;5.57;2.15;;;9.00;99.90;;;;;;5033014;28;20136;-60
2023/12/31 09:50:12;;;;;;;6.75;2.80;;;8.90;99.90;;;;;;5048041;28;20029;-60
2023/12/31 09:52:39;;;;;;;5.53;2.55;;;8.90;99.90;;;;;;5023980;28;20033;-60
2023/12/31 09:55:06;;;;;;;5.70;2.50;;;8.90;99.90;;;;;;5027500;28;20044;-60
2023/12/31 09:57:34;;;;;;;4.88;2.08;;;8.90;99.90;;;;;;5033800;28;20040;-60
2023/12/31 10:00:04;;;;;;;4.00;2.20;;;8.80;99.90;;;;;;5003776;28;20502;-61
2023/12/31 10:02:30;;;;;;;6.15;2.97;;;8.80;99.90;;;;;;5027877;28;20498;-60
2023/12/31 10:04:56;;;;;;;9.30;3.45;;;8.80;99.90;;;;;;5014503;28;20045;-61
2023/12/31 10:07:23;;;;;;;5.97;2.95;;;8.80;99.90;;;;;;4998078;28;20804;-60
2023/12/31 10:09:49;;;;;;;4.20;2.60;;;8.80;99.90;;;;;;5029145;28;20033;-60
2023/12/31 10:12:16;;;;;;;5.20;2.22;;;8.80;99.90;;;;;;5020485;28;20049;-61
2023/12/31 10:14:42;;;;;;;5.45;2.05;;;8.80;99.90;;;;;;5028316;28;20032;-60
2023/12/31 10:17:08;;;;;;;6.40;2.60;;;8.80;99.90;;;;;;5050004;28;20091;-61
2023/12/31 10:19:34;;;;;;;6.47;3.45;;;8.90;99.90;;;;;;5026867;28;20502;-60
2023/12/31 10:21:59;;;;;;;4.50;2.30;;;8.80;99.90;;;;;;5014071;28;20049;-60
2023/12/31 10:24:27;;;;;;;5.03;2.28;;;8.90;99.90;;;;;;5019311;28;20041;-60
2023/12/31 10:26:54;;;;;;;5.00;1.95;;;8.90;99.90;;;;;;5016061;28;20399;-61
2023/12/31 10:29:20;;;;;;;6.28;2.75;;;8.90;99.90;;;;;;4997734;28;20159;-60
2023/12/31 10:31:47;;;;;;;7.78;3.67;;;8.90;99.90;;;;;;5028631;28;20110;-60
2023/12/31 10:34:15;;;;;;;6.40;2.83;;;9.00;99.90;;;;;;5020109;28;20474;-61
2023/12/31 10:36:43;;;;;;;4.65;2.33;;;9.00;99.90;;;;;;5016643;28;20040;-60
2023/12/31 10:39:08;;;;;;;4.75;2.05;;;9.00;99.90;;;;;;5029714;28;20037;-60
2023/12/31 10:41:37;;;;;;;8.23;3.78;;;9.10;99.90;;;;;;4997273;28;20148;-60
2023/12/31 10:44:09;;;;;;;7.85;3.78;;;9.10;99.90;;;;;;5015405;28;20461;-60
2023/12/31 10:46:37;;;;;;;6.57;3.25;;;9.10;99.90;;;;;;5028828;28;20125;-60
2023/12/31 10:49:04;;;;;;;6.20;2.70;;;9.10;99.90;;;;;;5050267;28;20056;-60
2023/12/31 10:51:31;;;;;;;4.80;2.30;;;9.20;99.90;;;;;;5032574;28;20405;-60
2023/12/31 10:54:05;;;;;;;6.85;2.20;;;9.20;99.90;;;;;;5048882;28;20092;-60
2023/12/31 10:56:32;;;;;;;5.75;2.60;;;9.20;99.90;;;;;;5033109;28;20037;-60
2023/12/31 10:58:58;;;;;;;8.13;2.90;;;9.30;99.90;;;;;;5033063;28;20130;-60
2023/12/31 11:01:27;;;;;;;6.80;3.08;;;9.30;99.90;;;;;;5051324;28;20041;-60
2023/12/31 11:03:53;;;;;;;6.18;2.70;;;9.30;99.90;;;;;;5008017;28;20120;-60
2023/12/31 11:06:19;;;;;;;4.68;2.50;;;9.30;99.90;;;;;;4996004;28;20390;-60
2023/12/31 11:08:46;;;;;;;6.00;2.30;;;9.20;99.90;;;;;;5013290;28;20038;-60
2023/12/31 11:11:14;;;;;;;6.15;2.67;;;9.20;99.90;;;;;;5011378;28;20045;-60
2023/12/31 11:13:43;;;;;;;4.43;1.63;;;9.00;99.90;;;;;;5006982;28;20124;-61
2023/12/31 11:16:43;;;;;;;2.95;1.38;;;8.90;99.90;;;;;;5007871;28;20045;-61
2023/12/31 11:19:44;;;;;;;3.90;1.40;;;8.70;99.90;;;;;;4997363;28;20057;-61
2023/12/31 11:22:31;;;;;;;3.28;1.30;;;8.50;99.90;;;;;;5001299;28;20042;-61
2023/12/31 11:24:58;;;;;;;3.17;1.10;;;8.40;99.90;;;;;;4979050;28;20383;-61
2023/12/31 11:27:27;;;;;;;2.05;0.82;;;8.30;99.90;;;;;;5009327;28;20042;-61
2023/12/31 11:29:53;;;;;;;3.55;1.10;;;8.20;99.90;;;;;;5008538;28;20041;-61
2023/12/31 11:32:20;;;;;;;4.57;1.05;;;8.20;99.90;;;;;;5010715;28;20080;-61
2023/12/31 11:34:51;;;;;;;3.90;1.52;;;8.10;99.90;;;;;;4992303;28;20045;-61
2023/12/31 11:37:17;;;;;;;3.50;1.30;;;8.10;99.90;;;;;;5027997;28;20037;-61
2023/12/31 11:39:47;;;;;;;6.28;1.38;;;8.00;99.90;;;;;;4993218;28;20054;-61
2023/12/31 11:42:13;;;;;;;5.50;1.45;;;8.00;99.90;;;;;;4992811;28;20037;-61
2023/12/31 11:44:41;;;;;;;2.05;0.90;;;8.00;99.90;;;;;;5004909;28;20428;-61
2023/12/31 11:47:15;;;;;;;2.65;0.90;;;8.00;99.90;;;;;;4997269;28;20512;-61
2023/12/31 11:50:07;;;;;;;4.80;0.90;;;8.00;99.90;;;;;;4998798;28;20046;-61
2023/12/31 11:52:42;;;;;;;4.78;1.20;;;8.00;99.90;;;;;;4986837;28;20049;-62
2023/12/31 11:55:11;;;;;;;;;;;8.00;99.90;;;;;;5006471;28;20449;-61
2023/12/31 11:57:38;;;;;;;3.70;1.35;;;8.00;99.90;;;;;;5001989;28;19928;-62
2023/12/31 12:00:08;;;;;;;4.07;1.42;;;8.00;99.90;;;;;;5011365;28;20077;-61
2023/12/31 12:02:34;;;;;;;7.85;2.28;;;8.10;99.90;;;;;;5013470;28;20067;-61
2023/12/31 12:05:03;;;;;;;4.28;2.08;;;8.10;99.90;;;;;;5000212;28;20390;-61
2023/12/31 12:07:29;;;;;;;7.95;2.00;;;8.20;99.90;;;;;;5030165;28;20045;-62
2023/12/31 12:09:55;;;;;;;2.92;1.10;;;8.30;99.90;;;;;;5021815;28;20554;-61
2023/12/31 12:12:22;;;;;;;2.15;0.70;;;8.40;99.90;;;;;;5044563;28;20128;-61
2023/12/31 12:14:51;;;;;;;2.05;0.75;;;8.60;99.90;;;;;;5030937;28;20041;-60
2023/12/31 12:17:17;;;;;;;3.20;1.38;;;8.70;99.90;;;;;;4998172;28;20040;-60
2023/12/31 12:19:43;;;;;;;5.13;1.50;;;8.80;99.90;;;;;;5029758;28;20045;-61
2023/12/31 12:22:09;;;;;;;3.03;1.30;;;8.90;99.90;;;;;;5030805;28;20048;-61
2023/12/31 12:24:35;;;;;;;2.85;1.17;;;8.90;99.90;;;;;;5011067;28;20052;-61
2023/12/31 12:27:01;;;;;;;2.65;1.10;;;9.00;99.90;;;;;;5016534;28;20037;-61
2023/12/31 12:29:27;;;;;;;2.90;0.75;;;9.00;99.90;;;;;;5028475;28;20460;-61
2023/12/31 12:31:53;;;;;;;5.68;1.90;;;8.90;99.90;;;;;;5014900;28;20041;-61
2023/12/31 12:34:19;;;;;;;3.53;1.40;;;8.90;99.90;;;;;;5017051;28;20103;-60
2023/12/31 12:36:48;;;;;;;2.83;0.98;;;8.90;99.90;;;;;;5014962;28;20071;-61
2023/12/31 12:39:20;;;;;;;6.00;1.60;;;8.80;99.90;;;;;;5024005;28;20045;-60
2023/12/31 12:41:48;;;;;;;4.78;1.83;;;8.80;99.90;;;;;;5011406;28;20079;-61
2023/12/31 12:44:15;;;;;;;5.20;1.80;;;8.80;99.90;;;;;;5024257;28;20052;-61
2023/12/31 12:46:42;;;;;;;3.28;1.30;;;8.80;99.90;;;;;;5027818;28;20662;-60
2023/12/31 12:49:09;;;;;;;5.55;1.63;;;8.70;99.90;;;;;;5017580;28;20140;-61
2023/12/31 12:51:35;;;;;;;5.05;2.08;;;8.70;99.90;;;;;;5030861;28;20424;-60
2023/12/31 12:54:02;;;;;;;3.20;1.30;;;8.70;99.90;;;;;;5051674;28;20052;-60